createdAt,value
2022-12-24T00:02:01.360Z,99093.22
2022-12-24T00:04:29.158Z,99101.59
2022-12-24T00:06:56.905Z,99107.06
2022-12-24T00:09:24.793Z,99116.28
2022-12-24T00:11:52.560Z,99132.00
2022-12-24T00:14:20.323Z,99120.47
2022-12-24T00:16:48.117Z,99133.47
2022-12-24T00:19:15.934Z,99111.69
2022-12-24T00:21:43.704Z,99132.59
2022-12-24T00:24:11.476Z,99122.59
2022-12-24T00:26:39.227Z,99120.88
2022-12-24T00:29:07.043Z,99125.31
2022-12-24T00:31:34.902Z,99128.44
2022-12-24T00:34:02.678Z,99135.16
2022-12-24T00:36:30.519Z,99143.53
2022-12-24T00:38:58.257Z,99139.75
2022-12-24T00:41:26.448Z,99126.16
2022-12-24T00:43:54.378Z,99144.38
2022-12-24T00:46:22.237Z,99146.47
2022-12-24T00:48:50.205Z,99150.25
2022-12-24T00:53:48.654Z,99150.88
2022-12-24T00:56:16.406Z,99149.44
2022-12-24T00:58:44.193Z,99147.75
2022-12-24T01:01:12.061Z,99159.47
2022-12-24T01:03:39.923Z,99166.59
2022-12-24T01:06:06.729Z,99170.16
2022-12-24T01:08:34.428Z,99187.56
2022-12-24T01:11:02.233Z,99192.13
2022-12-24T01:13:30.079Z,99186.91
2022-12-24T01:15:57.886Z,99205.34
2022-12-24T01:18:25.684Z,99208.06
2022-12-24T01:20:53.440Z,99212.50
2022-12-24T01:23:21.245Z,99204.53
2022-12-24T01:25:49.028Z,99214.34
2022-12-24T01:28:16.779Z,99217.31
2022-12-24T01:30:44.622Z,99213.94
2022-12-24T01:33:12.386Z,99221.06
2022-12-24T01:35:40.228Z,99216.47
2022-12-24T01:38:07.971Z,99217.75
2022-12-24T01:40:53.044Z,99221.72
2022-12-24T01:43:28.519Z,99224.44
2022-12-24T01:45:56.341Z,99231.56
2022-12-24T01:48:24.811Z,99242.03
2022-12-24T01:50:52.651Z,99238.44
2022-12-24T01:53:20.431Z,99241.19
2022-12-24T01:55:48.195Z,99237.63
2022-12-24T01:58:15.943Z,99244.97
2022-12-24T02:00:43.736Z,99252.94
2022-12-24T02:03:11.550Z,99262.13
2022-12-24T02:05:39.432Z,99259.63
2022-12-24T02:08:07.184Z,99253.31
2022-12-24T02:10:34.953Z,99253.31
2022-12-24T02:13:02.727Z,99263.19
2022-12-24T02:15:30.483Z,99273.00
2022-12-24T02:17:58.392Z,99263.19
2022-12-24T02:20:26.149Z,99265.69
2022-12-24T02:22:54.016Z,99273.84
2022-12-24T02:25:21.915Z,99271.34
2022-12-24T02:27:49.776Z,99277.81
2022-12-24T02:30:18.678Z,99275.09
2022-12-24T02:32:46.475Z,99278.06
2022-12-24T02:35:14.327Z,99291.44
2022-12-24T02:37:42.109Z,99287.69
2022-12-24T02:40:16.009Z,99293.13
2022-12-24T02:42:44.260Z,99284.34
2022-12-24T02:45:12.071Z,99289.78
2022-12-24T02:47:39.881Z,99293.31
2022-12-24T02:50:07.790Z,99293.56
2022-12-24T02:52:35.672Z,99297.31
2022-12-24T02:55:03.494Z,99291.88
2022-12-24T02:57:31.223Z,99302.97
2022-12-24T02:59:58.948Z,99301.91
2022-12-24T03:02:26.881Z,99294.81
2022-12-24T03:04:54.744Z,99304.84
2022-12-24T03:07:23.851Z,99303.19
2022-12-24T03:09:51.599Z,99300.47
2022-12-24T03:12:19.351Z,99308.63
2022-12-24T03:14:47.093Z,99313.00
2022-12-24T03:17:14.899Z,99313.00
2022-12-24T03:19:42.613Z,99315.94
2022-12-24T03:22:10.389Z,99308.63
2022-12-24T03:24:38.165Z,99323.28
2022-12-24T03:27:05.899Z,99317.63
2022-12-24T03:29:33.629Z,99323.06
2022-12-24T03:32:01.465Z,99327.88
2022-12-24T03:34:29.286Z,99345.91
2022-12-24T03:36:57.172Z,99341.28
2022-12-24T03:39:24.949Z,99347.78
2022-12-24T03:41:52.766Z,99354.25
2022-12-24T03:44:20.520Z,99357.63
2022-12-24T03:46:48.301Z,99363.06
2022-12-24T03:49:15.997Z,99368.69
2022-12-24T03:51:43.773Z,99364.31
2022-12-24T03:54:11.573Z,99369.75
2022-12-24T03:56:39.347Z,99371.00
2022-12-24T03:59:07.185Z,99381.91
2022-12-24T04:01:35.067Z,99381.06
2022-12-24T04:04:03.001Z,99390.28
2022-12-24T04:06:30.744Z,99399.47
2022-12-24T04:08:59.344Z,99400.31
2022-12-24T04:11:27.207Z,99411.19
2022-12-24T04:13:54.982Z,99421.25
2022-12-24T04:16:22.760Z,99418.75
2022-12-24T04:18:50.558Z,99422.31
2022-12-24T04:21:18.282Z,99429.41
2022-12-24T04:23:46.052Z,99432.78
2022-12-24T04:26:13.843Z,99439.69
2022-12-24T04:28:41.833Z,99435.28
2022-12-24T04:31:09.618Z,99448.69
2022-12-24T04:33:37.479Z,99453.94
2022-12-24T04:36:05.269Z,99453.94
2022-12-24T04:38:33.034Z,99447.63
2022-12-24T04:41:00.919Z,99457.28
2022-12-24T04:43:28.846Z,99458.34
2022-12-24T04:45:56.647Z,99464.84
2022-12-24T04:48:24.538Z,99452.06
2022-12-24T04:50:52.270Z,99454.78
2022-12-24T04:53:20.027Z,99452.06
2022-12-24T04:55:47.831Z,99456.03
2022-12-24T04:58:15.616Z,99454.56
2022-12-24T05:00:43.417Z,99465.63
2022-12-24T05:03:11.261Z,99473.19
2022-12-24T05:05:39.060Z,99476.09
2022-12-24T05:08:07.329Z,99488.06
2022-12-24T05:10:35.061Z,99480.06
2022-12-24T05:13:02.910Z,99486.56
2022-12-24T05:15:30.748Z,99499.31
2022-12-24T05:17:58.579Z,99504.56
2022-12-24T05:20:26.360Z,99506.25
2022-12-24T05:23:11.488Z,99502.69
2022-12-24T05:25:56.720Z,99510.84
2022-12-24T05:28:24.757Z,99519.22
2022-12-24T05:30:52.579Z,99522.78
2022-12-24T05:33:20.337Z,99523.44
2022-12-24T05:35:48.109Z,99533.25
2022-12-24T05:38:15.888Z,99532.03
2022-12-24T05:40:43.780Z,99529.72
2022-12-24T05:43:11.564Z,99540.19
2022-12-24T05:45:39.349Z,99545.44
2022-12-24T05:48:08.173Z,99547.56
2022-12-24T05:50:35.939Z,99561.66
2022-12-24T05:53:03.697Z,99553.34
2022-12-24T05:55:31.518Z,99568.88
2022-12-24T05:57:59.250Z,99577.50
2022-12-24T06:00:26.955Z,99577.69
2022-12-24T06:02:54.850Z,99585.47
2022-12-24T06:05:22.617Z,99592.56
2022-12-24T06:07:51.176Z,99589.84
2022-12-24T06:10:19.567Z,99594.03
2022-12-24T06:12:47.333Z,99604.13
2022-12-24T06:15:20.271Z,99606.84
2022-12-24T06:17:51.267Z,99610.84
2022-12-24T06:20:19.075Z,99610.41
2022-12-24T06:22:46.811Z,99614.03
2022-12-24T06:25:14.524Z,99617.34
2022-12-24T06:27:42.318Z,99627.13
2022-12-24T06:30:10.142Z,99628.72
2022-12-24T06:32:37.988Z,99643.88
2022-12-24T06:35:05.938Z,99647.69
2022-12-24T06:37:33.652Z,99656.69
2022-12-24T06:40:01.538Z,99660.97
2022-12-24T06:42:29.297Z,99672.63
2022-12-24T06:44:59.787Z,99677.22
2022-12-24T06:47:29.922Z,99680.72
2022-12-24T06:49:57.668Z,99684.63
2022-12-24T06:52:25.389Z,99678.66
2022-12-24T06:54:53.132Z,99680.97
2022-12-24T06:57:20.963Z,99684.69
2022-12-24T06:59:48.717Z,99688.47
2022-12-24T07:02:16.577Z,99689.25
2022-12-24T07:04:44.470Z,99691.38
2022-12-24T07:07:12.341Z,99684.53
2022-12-24T07:09:40.111Z,99687.16
2022-12-24T07:12:07.965Z,99688.56
2022-12-24T07:14:35.796Z,99697.50
2022-12-24T07:17:03.626Z,99701.78
2022-12-24T07:19:31.483Z,99698.34
2022-12-24T07:21:59.187Z,99702.38
2022-12-24T07:24:26.869Z,99705.44
2022-12-24T07:26:54.655Z,99704.66
2022-12-24T07:29:22.451Z,99702.13
2022-12-24T07:31:50.282Z,99707.97
2022-12-24T07:34:18.010Z,99710.22
2022-12-24T07:36:46.093Z,99711.84
2022-12-24T07:39:13.833Z,99716.84
2022-12-24T07:41:42.029Z,99725.09
2022-12-24T07:44:09.772Z,99737.41
2022-12-24T07:46:37.572Z,99736.34
2022-12-24T07:49:05.384Z,99747.75
2022-12-24T07:51:33.110Z,99750.19
2022-12-24T07:54:00.817Z,99751.41
2022-12-24T07:56:28.657Z,99759.69
2022-12-24T07:58:56.416Z,99771.97
2022-12-24T08:01:24.435Z,99778.34
2022-12-24T08:03:54.665Z,99772.44
2022-12-24T08:06:22.893Z,99776.81
2022-12-24T08:08:50.622Z,99779.66
2022-12-24T08:11:18.582Z,99781.41
2022-12-24T08:13:46.316Z,99788.38
2022-12-24T08:16:14.076Z,99789.00
2022-12-24T08:18:41.801Z,99794.88
2022-12-24T08:21:09.531Z,99800.28
2022-12-24T08:23:37.391Z,99801.41
2022-12-24T08:26:05.100Z,99813.31
2022-12-24T08:28:32.824Z,99812.56
2022-12-24T08:31:00.543Z,99817.84
2022-12-24T08:33:28.346Z,99825.03
2022-12-24T08:35:56.185Z,99832.00
2022-12-24T08:38:24.016Z,99826.59
2022-12-24T08:40:52.204Z,99834.38
2022-12-24T08:43:19.959Z,99844.41
2022-12-24T08:45:48.219Z,99839.47
2022-12-24T08:48:15.991Z,99850.88
2022-12-24T08:50:43.971Z,99854.31
2022-12-24T08:53:11.746Z,99860.22
2022-12-24T08:55:39.693Z,99869.97
2022-12-24T08:58:07.456Z,99872.94
2022-12-24T09:00:35.229Z,99867.31
2022-12-24T09:03:03.061Z,99862.78
2022-12-24T09:05:30.969Z,99870.53
2022-12-24T09:07:58.704Z,99880.00
2022-12-24T09:10:26.679Z,99885.28
2022-12-24T09:12:54.495Z,99891.50
2022-12-24T09:15:22.365Z,99888.75
2022-12-24T09:17:50.100Z,99890.84
2022-12-24T09:20:17.848Z,99884.56
2022-12-24T09:22:45.593Z,99887.59
2022-12-24T09:25:13.449Z,99890.06
2022-12-24T09:27:41.140Z,99891.88
2022-12-24T09:30:09.005Z,99901.00
2022-12-24T09:32:36.687Z,99902.34
2022-12-24T09:35:04.549Z,99910.28
2022-12-24T09:37:32.280Z,99914.16
2022-12-24T09:40:00.200Z,99919.63
2022-12-24T09:42:27.923Z,99922.69
2022-12-24T09:44:55.618Z,99925.31
2022-12-24T09:47:23.620Z,99919.63
2022-12-24T09:49:51.493Z,99932.72
2022-12-24T09:52:19.182Z,99926.78
2022-12-24T09:55:00.108Z,99937.88
2022-12-24T09:57:27.799Z,99937.59
2022-12-24T09:59:55.524Z,99939.16
2022-12-24T10:02:23.460Z,99941.78
2022-12-24T10:04:51.279Z,99943.50
2022-12-24T10:07:19.045Z,99934.69
2022-12-24T10:09:46.812Z,99945.09
2022-12-24T10:12:15.617Z,99941.16
2022-12-24T10:14:43.329Z,99949.81
2022-12-24T10:17:11.083Z,99948.34
2022-12-24T10:19:38.894Z,99950.25
2022-12-24T10:22:06.589Z,99944.81
2022-12-24T10:24:34.689Z,99948.38
2022-12-24T10:27:02.521Z,99953.19
2022-12-24T10:29:30.436Z,99948.59
2022-12-24T10:31:58.151Z,99946.06
2022-12-24T10:34:26.077Z,99955.75
2022-12-24T10:36:53.951Z,99959.09
2022-12-24T10:39:21.686Z,99971.09
2022-12-24T10:41:49.461Z,99972.78
2022-12-24T10:44:17.210Z,99968.34
2022-12-24T10:46:45.029Z,99967.50
2022-12-24T10:49:12.808Z,99967.06
2022-12-24T10:51:40.530Z,99970.81
2022-12-24T10:54:08.279Z,99967.63
2022-12-24T10:56:36.056Z,99973.72
2022-12-24T10:59:03.855Z,99978.31
2022-12-24T11:01:31.768Z,99980.81
2022-12-24T11:03:59.650Z,99979.53
2022-12-24T11:06:27.376Z,99986.22
2022-12-24T11:08:55.211Z,99979.47
2022-12-24T11:11:23.669Z,99986.19
2022-12-24T11:13:51.414Z,99995.84
2022-12-24T11:16:19.371Z,100003.41
2022-12-24T11:18:51.223Z,99994.78
2022-12-24T11:21:19.551Z,99992.44
2022-12-24T11:23:47.532Z,99997.28
2022-12-24T11:26:15.224Z,99994.09
2022-12-24T11:28:42.965Z,99997.03
2022-12-24T11:31:11.074Z,99998.28
2022-12-24T11:33:38.976Z,100000.38
2022-12-24T11:36:06.750Z,99993.63
2022-12-24T11:38:34.458Z,99992.13
2022-12-24T11:41:02.185Z,100000.53
2022-12-24T11:43:44.495Z,99999.06
2022-12-24T11:46:12.396Z,99996.72
2022-12-24T11:48:40.295Z,100003.41
2022-12-24T11:51:08.041Z,99998.13
2022-12-24T11:53:36.139Z,100009.22
2022-12-24T11:56:03.967Z,100003.16
2022-12-24T11:58:32.016Z,99996.22
2022-12-24T12:00:59.772Z,99995.56
2022-12-24T12:03:27.610Z,99994.09
2022-12-24T12:05:55.425Z,99995.31
2022-12-24T12:08:23.223Z,100003.91
2022-12-24T12:10:51.030Z,100005.16
2022-12-24T12:13:18.980Z,100000.94
2022-12-24T12:15:46.872Z,99998.63
2022-12-24T12:18:14.723Z,100002.34
2022-12-24T12:20:42.592Z,100004.91
2022-12-24T12:23:10.370Z,100017.03
2022-12-24T12:25:38.253Z,100024.56
2022-12-24T12:28:06.042Z,100008.41
2022-12-24T12:30:33.825Z,100011.34
2022-12-24T12:33:01.875Z,100009.03
2022-12-24T12:35:29.709Z,100012.16
2022-12-24T12:37:58.298Z,100008.78
2022-12-24T12:40:26.208Z,100018.84
2022-12-24T12:42:53.958Z,100017.97
2022-12-24T12:45:21.685Z,100029.19
2022-12-24T12:47:49.690Z,100025.97
2022-12-24T12:50:17.509Z,100024.44
2022-12-24T12:52:45.259Z,100036.06
2022-12-24T12:55:22.202Z,100037.56
2022-12-24T12:57:52.124Z,100036.78
2022-12-24T13:00:19.915Z,100044.22
2022-12-24T13:02:47.815Z,100031.81
2022-12-24T13:05:15.676Z,100042.06
2022-12-24T13:07:43.592Z,100040.47
2022-12-24T13:10:11.348Z,100036.50
2022-12-24T13:12:39.184Z,100043.13
2022-12-24T13:15:07.054Z,100042.13
2022-12-24T13:17:34.843Z,100052.16
2022-12-24T13:20:02.703Z,100048.88
2022-12-24T13:22:30.475Z,100061.34
2022-12-24T13:24:58.267Z,100057.94
2022-12-24T13:27:26.138Z,100063.19
2022-12-24T13:29:54.319Z,100061.66
2022-12-24T13:32:22.174Z,100070.75
2022-12-24T13:34:49.939Z,100069.88
2022-12-24T13:37:17.761Z,100062.44
2022-12-24T13:39:45.567Z,100069.13
2022-12-24T13:42:13.332Z,100071.97
2022-12-24T13:44:41.150Z,100072.03
2022-12-24T13:47:08.975Z,100080.59
2022-12-24T13:49:36.849Z,100081.53
2022-12-24T13:52:04.723Z,100082.69
2022-12-24T13:54:32.561Z,100083.66
2022-12-24T13:57:00.416Z,100091.81
2022-12-24T13:59:33.052Z,100094.69
2022-12-24T14:02:04.228Z,100096.41
2022-12-24T14:04:32.160Z,100100.66
2022-12-24T14:07:00.210Z,100113.69
2022-12-24T14:09:27.962Z,100112.69
2022-12-24T14:11:56.737Z,100117.75
2022-12-24T14:14:24.601Z,100117.41
2022-12-24T14:16:53.498Z,100113.19
2022-12-24T14:19:21.332Z,100125.22
2022-12-24T14:21:49.149Z,100126.84
2022-12-24T14:24:16.958Z,100141.72
2022-12-24T14:26:46.121Z,100131.50
2022-12-24T14:29:13.962Z,100141.81
2022-12-24T14:31:41.818Z,100137.06
2022-12-24T14:34:09.666Z,100148.28
2022-12-24T14:36:37.569Z,100148.03
2022-12-24T14:39:05.452Z,100143.19
2022-12-24T14:41:33.254Z,100143.38
2022-12-24T14:44:01.037Z,100144.63
2022-12-24T14:46:29.033Z,100149.09
2022-12-24T14:48:57.017Z,100146.38
2022-12-24T14:51:24.817Z,100152.56
2022-12-24T14:53:52.646Z,100151.09
2022-12-24T14:56:20.429Z,100157.69
2022-12-24T14:58:48.259Z,100159.47
2022-12-24T15:01:16.171Z,100165.81
2022-12-24T15:03:44.066Z,100174.09
2022-12-24T15:06:11.950Z,100174.69
2022-12-24T15:08:40.060Z,100181.69
2022-12-24T15:11:07.909Z,100174.28
2022-12-24T15:13:36.940Z,100179.56
2022-12-24T15:16:05.025Z,100181.47
2022-12-24T15:18:32.869Z,100185.63
2022-12-24T15:21:04.413Z,100191.00
2022-12-24T15:23:32.624Z,100201.16
2022-12-24T15:26:00.383Z,100201.72
2022-12-24T15:28:28.147Z,100202.19
2022-12-24T15:30:56.392Z,100207.59
2022-12-24T15:33:24.215Z,100205.88
2022-12-24T15:35:51.993Z,100209.22
2022-12-24T15:38:19.798Z,100203.41
2022-12-24T15:40:47.597Z,100212.91
2022-12-24T15:43:15.382Z,100212.38
2022-12-24T15:45:43.230Z,100216.72
2022-12-24T15:48:11.007Z,100222.28
2022-12-24T15:50:38.787Z,100223.97
2022-12-24T15:53:20.595Z,100228.41
2022-12-24T15:55:49.528Z,100234.09
2022-12-24T15:58:17.540Z,100232.41
2022-12-24T16:00:45.308Z,100226.84
2022-12-24T16:03:13.291Z,100229.97
2022-12-24T16:05:41.188Z,100234.69
2022-12-24T16:08:09.009Z,100232.66
2022-12-24T16:10:38.931Z,100236.06
2022-12-24T16:13:06.759Z,100247.03
2022-12-24T16:15:34.650Z,100243.91
2022-12-24T16:18:02.406Z,100251.25
2022-12-24T16:20:30.549Z,100253.34
2022-12-24T16:22:58.347Z,100250.97
2022-12-24T16:25:26.125Z,100253.34
2022-12-24T16:27:55.518Z,100254.28
2022-12-24T16:30:25.093Z,100257.78
2022-12-24T16:32:52.870Z,100266.47
2022-12-24T16:35:20.812Z,100255.41
2022-12-24T16:37:48.560Z,100255.47
2022-12-24T16:40:20.573Z,100268.22
2022-12-24T16:43:07.454Z,100272.69
2022-12-24T16:45:35.579Z,100277.31
2022-12-24T16:48:03.384Z,100279.28
2022-12-24T16:50:31.215Z,100280.00
2022-12-24T16:52:59.061Z,100280.44
2022-12-24T16:55:26.822Z,100286.28
2022-12-24T16:57:54.612Z,100277.81
2022-12-24T17:00:22.644Z,100276.34
2022-12-24T17:02:50.879Z,100281.78
2022-12-24T17:05:18.777Z,100284.69
2022-12-24T17:07:46.567Z,100290.63
2022-12-24T17:10:14.780Z,100296.00
2022-12-24T17:12:42.688Z,100292.06
2022-12-24T17:15:10.821Z,100298.22
2022-12-24T17:17:38.637Z,100302.81
2022-12-24T17:20:06.430Z,100305.72
2022-12-24T17:22:34.205Z,100311.94
2022-12-24T17:25:02.323Z,100312.75
2022-12-24T17:27:30.111Z,100313.06
2022-12-24T17:29:57.973Z,100315.13
2022-12-24T17:32:25.756Z,100315.34
2022-12-24T17:34:53.714Z,100326.00
2022-12-24T17:37:21.519Z,100336.31
2022-12-24T17:39:49.313Z,100330.53
2022-12-24T17:42:17.074Z,100340.69
2022-12-24T17:44:44.948Z,100333.69
2022-12-24T17:47:12.759Z,100335.31
2022-12-24T17:49:40.597Z,100338.75
2022-12-24T17:52:08.788Z,100345.16
2022-12-24T17:54:36.700Z,100347.31
2022-12-24T17:57:04.517Z,100341.66
2022-12-24T17:59:32.331Z,100339.97
2022-12-24T18:02:00.152Z,100340.59
2022-12-24T18:04:28.086Z,100347.53
2022-12-24T18:07:01.967Z,100344.59
2022-12-24T18:09:30.374Z,100345.63
2022-12-24T18:11:58.171Z,100347.69
2022-12-24T18:14:26.784Z,100347.66
2022-12-24T18:16:54.566Z,100350.34
2022-12-24T18:19:22.413Z,100350.97
2022-12-24T18:21:50.240Z,100353.25
2022-12-24T18:24:18.000Z,100351.59
2022-12-24T18:26:46.143Z,100354.53
2022-12-24T18:29:13.980Z,100355.16
2022-12-24T18:31:41.825Z,100360.38
2022-12-24T18:34:09.765Z,100351.94
2022-12-24T18:36:37.896Z,100357.19
2022-12-24T18:39:06.385Z,100365.06
2022-12-24T18:41:35.372Z,100365.22
2022-12-24T18:44:03.183Z,100370.31
2022-12-24T18:46:30.980Z,100376.75
2022-12-24T18:48:59.589Z,100387.00
2022-12-24T18:51:27.333Z,100394.72
2022-12-24T18:53:55.130Z,100402.41
2022-12-24T18:56:22.886Z,100412.28
2022-12-24T18:58:50.812Z,100407.38
2022-12-24T19:01:18.762Z,100411.84
2022-12-24T19:03:46.653Z,100400.97
2022-12-24T19:06:14.430Z,100403.25
2022-12-24T19:08:59.531Z,100409.94
2022-12-24T19:11:28.292Z,100412.66
2022-12-24T19:13:58.076Z,100413.69
2022-12-24T19:16:26.305Z,100425.66
2022-12-24T19:18:54.205Z,100424.41
2022-12-24T19:21:21.962Z,100427.66
2022-12-24T19:23:49.809Z,100425.22
2022-12-24T19:26:17.694Z,100414.88
2022-12-24T19:28:45.785Z,100429.44
2022-12-24T19:31:13.652Z,100423.88
2022-12-24T19:33:43.312Z,100416.34
2022-12-24T19:36:11.631Z,100428.22
2022-12-24T19:38:39.367Z,100412.91
2022-12-24T19:41:07.370Z,100412.69
2022-12-24T19:43:35.174Z,100424.03
2022-12-24T19:46:03.153Z,100430.06
2022-12-24T19:48:31.124Z,100431.81
2022-12-24T19:50:59.030Z,100438.31
2022-12-24T19:53:26.799Z,100429.75
2022-12-24T19:55:54.545Z,100424.66
2022-12-24T19:58:22.337Z,100422.69
2022-12-24T20:00:50.140Z,100426.88
2022-12-24T20:03:18.020Z,100432.03
2022-12-24T20:05:45.930Z,100428.47
2022-12-24T20:08:13.713Z,100435.03
2022-12-24T20:10:41.750Z,100427.06
2022-12-24T20:13:09.532Z,100432.50
2022-12-24T20:15:37.378Z,100436.91
2022-12-24T20:18:05.166Z,100431.19
2022-12-24T20:20:32.974Z,100444.88
2022-12-24T20:23:00.735Z,100443.13
2022-12-24T20:25:28.651Z,100443.72
2022-12-24T20:27:56.493Z,100453.03
2022-12-24T20:30:24.282Z,100446.72
2022-12-24T20:32:52.142Z,100446.25
2022-12-24T20:35:20.164Z,100459.53
2022-12-24T20:37:47.962Z,100455.25
2022-12-24T20:40:15.772Z,100456.28
2022-12-24T20:42:43.528Z,100451.19
2022-12-24T20:45:11.410Z,100453.47
2022-12-24T20:47:39.250Z,100452.75
2022-12-24T20:50:07.063Z,100443.44
2022-12-24T20:52:34.835Z,100455.81
2022-12-24T20:55:02.649Z,100448.75
2022-12-24T20:57:36.091Z,100449.31
2022-12-24T21:00:04.532Z,100460.41
2022-12-24T21:02:32.526Z,100462.41
2022-12-24T21:05:02.594Z,100455.19
2022-12-24T21:07:30.659Z,100456.19
2022-12-24T21:09:58.661Z,100451.13
2022-12-24T21:12:43.862Z,100454.66
2022-12-24T21:15:12.016Z,100465.31
2022-12-24T21:17:39.751Z,100475.81
2022-12-24T21:20:07.564Z,100481.00
2022-12-24T21:22:35.320Z,100475.03
2022-12-24T21:25:03.187Z,100488.03
2022-12-24T21:27:31.055Z,100479.00
2022-12-24T21:29:58.925Z,100482.13
2022-12-24T21:32:26.717Z,100481.69
2022-12-24T21:34:54.556Z,100483.94
2022-12-24T21:37:22.563Z,100494.22
2022-12-24T21:39:50.388Z,100497.31
2022-12-24T21:42:18.155Z,100500.66
2022-12-24T21:44:45.926Z,100503.94
2022-12-24T21:47:13.711Z,100505.16
2022-12-24T21:49:59.183Z,100509.69
2022-12-24T21:52:27.027Z,100510.94
2022-12-24T21:54:53.811Z,100522.91
2022-12-24T21:57:39.039Z,100522.41
2022-12-24T22:00:20.628Z,100525.75
2022-12-24T22:02:48.618Z,100528.66
2022-12-24T22:05:16.622Z,100518.38
2022-12-24T22:08:01.300Z,100528.66
2022-12-24T22:10:46.693Z,100524.59
2022-12-24T22:13:14.502Z,100529.03
2022-12-24T22:15:42.381Z,100539.28
2022-12-24T22:18:10.143Z,100543.91
2022-12-24T22:20:38.130Z,100545.13
2022-12-24T22:23:05.901Z,100546.34
2022-12-24T22:25:33.921Z,100547.38
2022-12-24T22:28:01.805Z,100543.13
2022-12-24T22:30:29.765Z,100546.91
2022-12-24T22:32:57.641Z,100553.59
2022-12-24T22:35:25.550Z,100554.81
2022-12-24T22:37:59.567Z,100553.13
2022-12-24T22:40:28.157Z,100568.16
2022-12-24T22:42:56.191Z,100565.81
2022-12-24T22:45:24.263Z,100564.13
2022-12-24T22:47:52.300Z,100561.41
2022-12-24T22:50:20.101Z,100566.88
2022-12-24T22:52:47.954Z,100561.72
2022-12-24T22:55:15.772Z,100567.19
2022-12-24T22:57:44.021Z,100558.34
2022-12-24T23:00:11.828Z,100563.16
2022-12-24T23:02:39.821Z,100568.50
2022-12-24T23:05:08.391Z,100573.66
2022-12-24T23:07:36.256Z,100569.78
2022-12-24T23:10:04.149Z,100572.72
2022-12-24T23:12:49.586Z,100569.50
2022-12-24T23:15:17.477Z,100567.16
2022-12-24T23:17:45.266Z,100569.88
2022-12-24T23:20:13.211Z,100574.66
2022-12-24T23:22:41.042Z,100580.47
2022-12-24T23:25:08.974Z,100592.44
2022-12-24T23:27:36.776Z,100587.34
2022-12-24T23:30:04.555Z,100584.63
2022-12-24T23:32:32.592Z,100585.63
2022-12-24T23:35:00.397Z,100589.41
2022-12-24T23:37:34.637Z,100591.28
2022-12-24T23:40:03.088Z,100586.84
2022-12-24T23:42:32.268Z,100577.84
2022-12-24T23:45:00.130Z,100571.53
2022-12-24T23:47:28.077Z,100576.31
2022-12-24T23:49:56.434Z,100569.19
2022-12-24T23:52:24.209Z,100576.50
2022-12-24T23:54:52.023Z,100576.50
2022-12-24T23:57:19.982Z,100585.03
2022-12-24T23:59:47.837Z,100585.03
